Time;durP1;ratioP1;P1;durP2;ratioP2;P2;SDS_P1;SDS_P2;PMS_P1;PMS_P2;Temp;Humidity;BMP_temperature;BMP_pressure;BME280_temperature;BME280_humidity;BME280_pressure;Samples;Min_cycle;Max_cycle;Signal;HPM_P1;HPM_P2
2023/06/29 00:00:23;;;;;;;19.53;17.43;;;19.30;99.90;;;;;;5031738;28;20530;-71
2023/06/29 00:02:52;;;;;;;21.20;18.77;;;19.40;99.90;;;;;;5030099;28;20474;-72
2023/06/29 00:05:21;;;;;;;21.90;18.57;;;19.40;99.90;;;;;;5028980;28;20451;-73
2023/06/29 00:07:50;;;;;;;18.73;16.83;;;19.30;99.90;;;;;;5033327;28;20443;-72
2023/06/29 00:10:18;;;;;;;23.80;20.17;;;19.20;99.90;;;;;;5017019;28;20548;-71
2023/06/29 00:12:45;;;;;;;26.67;20.80;;;19.20;99.90;;;;;;5025832;28;20557;-73
2023/06/29 00:15:12;;;;;;;27.13;20.50;;;19.10;99.90;;;;;;5022209;28;20535;-73
2023/06/29 00:17:39;;;;;;;25.43;20.50;;;19.10;99.90;;;;;;5030603;28;20529;-73
2023/06/29 00:20:10;;;;;;;23.03;17.50;;;19.10;99.90;;;;;;5025946;28;20447;-72
2023/06/29 00:22:40;;;;;;;23.43;18.57;;;19.10;99.90;;;;;;5028707;28;20558;-73
2023/06/29 00:25:09;;;;;;;27.17;19.90;;;19.10;99.90;;;;;;5030622;28;20439;-71
2023/06/29 00:27:37;;;;;;;23.00;19.20;;;19.10;99.90;;;;;;5026643;28;20862;-74
2023/06/29 00:30:04;;;;;;;23.20;19.97;;;19.10;99.90;;;;;;5030333;28;20467;-73
2023/06/29 00:32:31;;;;;;;27.10;19.93;;;19.20;99.90;;;;;;5025671;28;20448;-73
2023/06/29 00:34:58;;;;;;;23.30;18.50;;;19.20;99.90;;;;;;5031045;28;20526;-72
2023/06/29 00:37:25;;;;;;;29.63;18.67;;;19.20;99.90;;;;;;5025900;28;20553;-72
2023/06/29 00:39:52;;;;;;;24.57;18.17;;;19.20;99.90;;;;;;5024220;28;20950;-73
2023/06/29 00:42:19;;;;;;;22.03;19.73;;;19.20;99.90;;;;;;5026144;28;20965;-73
2023/06/29 00:44:48;;;;;;;23.77;17.50;;;19.20;99.90;;;;;;5021881;28;20835;-72
2023/06/29 00:47:15;;;;;;;22.30;18.70;;;19.30;99.90;;;;;;5023676;28;20522;-72
2023/06/29 00:49:42;;;;;;;22.23;18.57;;;19.40;99.90;;;;;;5023286;28;20510;-72
2023/06/29 00:52:10;;;;;;;24.97;19.07;;;19.50;99.90;;;;;;5028348;28;20991;-71
2023/06/29 00:54:37;;;;;;;26.23;18.63;;;19.50;99.90;;;;;;5016745;28;20479;-71
2023/06/29 00:57:04;;;;;;;25.87;18.63;;;19.50;99.90;;;;;;5026720;28;20436;-72
2023/06/29 00:59:31;;;;;;;22.07;18.93;;;19.50;99.90;;;;;;5019323;28;20442;-73
2023/06/29 01:02:00;;;;;;;20.30;18.27;;;19.50;99.90;;;;;;5025874;28;20478;-72
2023/06/29 01:04:27;;;;;;;29.43;21.60;;;19.40;99.90;;;;;;5023067;28;20532;-72
2023/06/29 01:07:00;;;;;;;23.83;19.30;;;19.40;99.90;;;;;;5028534;28;20535;-71
2023/06/29 01:09:29;;;;;;;22.17;17.90;;;19.40;99.90;;;;;;5025737;28;20467;-72
2023/06/29 01:11:58;;;;;;;20.37;17.27;;;19.40;99.90;;;;;;5025372;28;21122;-72
2023/06/29 01:14:26;;;;;;;26.43;19.77;;;19.40;99.90;;;;;;5030838;28;20550;-73
2023/06/29 01:16:56;;;;;;;26.50;19.90;;;19.40;99.90;;;;;;5021602;28;20443;-72
2023/06/29 01:19:28;;;;;;;25.97;18.43;;;19.30;99.90;;;;;;5029412;28;20856;-72
2023/06/29 01:22:03;;;;;;;23.20;18.70;;;19.30;99.90;;;;;;5015782;28;20483;-72
2023/06/29 01:24:38;;;;;;;27.00;20.90;;;19.30;99.90;;;;;;5007634;28;20874;-73
2023/06/29 01:27:05;;;;;;;24.33;21.37;;;19.30;99.90;;;;;;5000158;28;20544;-72
2023/06/29 01:29:32;;;;;;;20.57;17.80;;;19.30;99.90;;;;;;5028949;28;20435;-73
2023/06/29 01:32:03;;;;;;;20.10;17.70;;;19.30;99.90;;;;;;5026297;28;20443;-72
2023/06/29 01:34:32;;;;;;;23.13;19.47;;;19.30;99.90;;;;;;5028205;28;20475;-73
2023/06/29 01:37:03;;;;;;;22.70;18.80;;;19.30;99.90;;;;;;5021824;28;22792;-72
2023/06/29 01:39:37;;;;;;;21.70;18.77;;;19.30;99.90;;;;;;5030390;28;20443;-72
2023/06/29 01:42:05;;;;;;;26.00;18.73;;;19.20;99.90;;;;;;5027631;28;20486;-72
2023/06/29 01:44:32;;;;;;;29.57;19.47;;;19.30;99.90;;;;;;5029788;28;20485;-72
2023/06/29 01:47:01;;;;;;;27.80;20.77;;;19.30;99.90;;;;;;5030899;28;20531;-72
2023/06/29 01:49:28;;;;;;;26.83;19.20;;;19.30;99.90;;;;;;5032363;28;20437;-73
2023/06/29 01:54:28;;;;;;;25.07;20.97;;;19.30;99.90;;;;;;5033094;28;20449;-72
2023/06/29 01:56:57;;;;;;;22.13;19.37;;;19.20;99.90;;;;;;5028162;28;20459;-72
2023/06/29 01:59:24;;;;;;;25.70;18.37;;;19.30;99.90;;;;;;5030525;28;20443;-72
2023/06/29 02:01:51;;;;;;;22.00;17.40;;;19.30;99.90;;;;;;5028684;28;20475;-72
2023/06/29 02:04:18;;;;;;;24.73;17.10;;;19.30;99.90;;;;;;5028986;28;20552;-72
2023/06/29 02:06:45;;;;;;;22.20;18.93;;;19.20;99.90;;;;;;5033995;28;20533;-73
2023/06/29 02:09:13;;;;;;;26.50;19.70;;;19.10;99.90;;;;;;5024033;28;20882;-73
2023/06/29 02:11:40;;;;;;;27.13;17.77;;;19.00;99.90;;;;;;5026816;28;20466;-72
2023/06/29 02:14:08;;;;;;;21.37;19.03;;;19.10;99.90;;;;;;5030122;28;20926;-73
2023/06/29 02:16:35;;;;;;;24.50;18.57;;;19.00;99.90;;;;;;5030513;28;20439;-72
2023/06/29 02:19:02;;;;;;;25.00;17.70;;;19.00;99.90;;;;;;5031383;28;20880;-72
2023/06/29 02:21:29;;;;;;;25.37;20.30;;;19.10;99.90;;;;;;5026975;28;20487;-72
2023/06/29 02:23:57;;;;;;;26.20;18.73;;;19.00;99.90;;;;;;5033574;28;20475;-73
2023/06/29 02:26:26;;;;;;;20.90;16.53;;;19.10;99.90;;;;;;5026558;28;20531;-72
2023/06/29 02:28:53;;;;;;;20.33;17.40;;;19.10;99.90;;;;;;5033841;28;20934;-72
2023/06/29 02:31:22;;;;;;;18.77;16.77;;;19.10;99.90;;;;;;5031219;28;20427;-73
2023/06/29 02:33:50;;;;;;;20.30;16.83;;;19.10;99.90;;;;;;5030762;28;20989;-72
2023/06/29 02:36:20;;;;;;;21.27;15.50;;;19.10;99.90;;;;;;5035436;28;20447;-72
2023/06/29 02:38:47;;;;;;;23.47;17.00;;;19.20;99.90;;;;;;5031079;28;20742;-72
2023/06/29 02:41:14;;;;;;;23.10;17.67;;;19.20;99.90;;;;;;5025211;28;20574;-72
2023/06/29 02:43:41;;;;;;;19.33;15.47;;;19.20;99.90;;;;;;5025924;28;20468;-72
2023/06/29 02:46:08;;;;;;;21.60;14.73;;;19.20;99.90;;;;;;5033270;28;20550;-72
2023/06/29 02:48:37;;;;;;;22.93;18.33;;;19.20;99.90;;;;;;5029478;28;20460;-72
2023/06/29 02:51:05;;;;;;;20.00;17.03;;;19.20;99.90;;;;;;5033994;28;20484;-73
2023/06/29 02:53:32;;;;;;;34.23;19.13;;;19.30;99.90;;;;;;5032625;28;20467;-72
2023/06/29 02:55:59;;;;;;;18.50;15.90;;;19.20;99.90;;;;;;5028415;28;20647;-72
2023/06/29 02:58:25;;;;;;;25.73;19.43;;;19.20;99.90;;;;;;5026283;28;20468;-72
2023/06/29 03:00:52;;;;;;;21.10;16.37;;;19.20;99.90;;;;;;5028414;28;20968;-73
2023/06/29 03:03:20;;;;;;;18.23;16.50;;;19.20;99.90;;;;;;5034334;28;20491;-74
2023/06/29 03:05:48;;;;;;;20.50;16.57;;;19.20;99.90;;;;;;5038741;28;20952;-73
2023/06/29 03:08:15;;;;;;;23.37;17.83;;;19.30;99.90;;;;;;5040947;28;20496;-72
2023/06/29 03:10:42;;;;;;;23.00;15.30;;;19.30;99.90;;;;;;5041649;28;20487;-73
2023/06/29 03:13:09;;;;;;;20.50;15.80;;;19.30;99.90;;;;;;5026077;28;20525;-72
2023/06/29 03:15:36;;;;;;;19.70;15.83;;;19.40;99.90;;;;;;5030466;28;20980;-73
2023/06/29 03:18:03;;;;;;;26.80;17.23;;;19.40;99.90;;;;;;5025930;28;20479;-72
2023/06/29 03:20:30;;;;;;;21.70;16.23;;;19.30;99.90;;;;;;5029303;28;20443;-72
2023/06/29 03:22:58;;;;;;;20.77;17.13;;;19.30;99.90;;;;;;5026502;28;20583;-72
2023/06/29 03:25:25;;;;;;;20.23;17.90;;;19.30;99.90;;;;;;5029151;28;20542;-72
2023/06/29 03:27:53;;;;;;;19.63;16.53;;;19.30;99.90;;;;;;5027584;28;20517;-74
2023/06/29 03:30:20;;;;;;;19.17;16.40;;;19.30;99.90;;;;;;5030075;28;20447;-71
2023/06/29 03:32:47;;;;;;;18.83;16.13;;;19.30;99.90;;;;;;5028837;28;20499;-72
2023/06/29 03:35:14;;;;;;;21.53;16.07;;;19.40;99.90;;;;;;5011079;28;20532;-72
2023/06/29 03:37:41;;;;;;;27.63;16.33;;;19.40;99.90;;;;;;5021710;28;20458;-72
2023/06/29 03:40:13;;;;;;;15.87;14.20;;;19.40;99.90;;;;;;5029376;28;20479;-74
2023/06/29 03:42:40;;;;;;;22.10;16.80;;;19.40;99.90;;;;;;5013982;28;20505;-72
2023/06/29 03:45:08;;;;;;;16.97;14.40;;;19.50;99.90;;;;;;5026331;28;20523;-72
2023/06/29 03:47:35;;;;;;;21.53;14.17;;;19.50;99.90;;;;;;5030474;28;20808;-73
2023/06/29 03:50:02;;;;;;;20.47;15.93;;;19.50;99.90;;;;;;5024599;28;20541;-72
2023/06/29 03:52:29;;;;;;;22.23;15.60;;;19.50;99.90;;;;;;5015323;28;20450;-74
2023/06/29 03:54:56;;;;;;;19.63;15.53;;;19.70;99.90;;;;;;5028254;28;20531;-72
2023/06/29 03:57:24;;;;;;;18.47;15.20;;;19.60;99.90;;;;;;5019583;28;20519;-71
2023/06/29 03:59:51;;;;;;;22.20;17.00;;;19.50;99.90;;;;;;5024706;28;20443;-73
2023/06/29 04:02:18;;;;;;;18.07;15.37;;;19.50;99.90;;;;;;5024324;28;20546;-72
2023/06/29 04:04:46;;;;;;;17.43;14.00;;;19.60;99.90;;;;;;5023376;28;20575;-73
2023/06/29 04:07:13;;;;;;;16.20;14.50;;;19.60;99.90;;;;;;5016100;28;21008;-74
2023/06/29 04:09:40;;;;;;;20.57;15.40;;;19.60;99.90;;;;;;5024324;28;20483;-72
2023/06/29 04:12:08;;;;;;;16.00;14.30;;;19.70;99.90;;;;;;5026719;28;20483;-72
2023/06/29 04:14:36;;;;;;;20.73;15.37;;;19.70;99.90;;;;;;5021983;28;20556;-74
2023/06/29 04:17:03;;;;;;;23.47;17.10;;;19.70;99.90;;;;;;5020044;28;20533;-73
2023/06/29 04:19:30;;;;;;;22.93;16.07;;;19.70;99.90;;;;;;5026547;28;20515;-73
2023/06/29 04:21:57;;;;;;;25.47;14.87;;;19.70;99.90;;;;;;5016650;28;20476;-71
2023/06/29 04:24:24;;;;;;;21.07;15.60;;;19.70;99.90;;;;;;5028365;28;20536;-72
2023/06/29 04:26:51;;;;;;;18.20;13.63;;;19.60;99.90;;;;;;5023831;28;20535;-72
2023/06/29 04:29:18;;;;;;;24.63;14.63;;;19.80;99.90;;;;;;5026595;28;20434;-71
2023/06/29 04:31:46;;;;;;;14.37;12.87;;;19.80;99.90;;;;;;5026264;28;20980;-70
2023/06/29 04:34:17;;;;;;;22.90;14.10;;;19.90;99.90;;;;;;5019572;28;20473;-72
2023/06/29 04:36:45;;;;;;;17.40;13.97;;;19.90;99.90;;;;;;5024625;28;20946;-72
2023/06/29 04:39:13;;;;;;;20.70;16.13;;;19.90;99.90;;;;;;5020984;28;20456;-72
